sensor_id;sensor_type;location;lat;lon;timestamp;pressure;altitude;pressure_sealevel;temperature;humidity
10992;BME280;5549;47.028;15.514;2022-11-15T00:01:25;96805.81;;;10.04;81.49
10992;BME280;5549;47.028;15.514;2022-11-15T00:03:53;96798.66;;;10.06;81.49
10992;BME280;5549;47.028;15.514;2022-11-15T00:06:21;96800.44;;;10.06;81.55
10992;BME280;5549;47.028;15.514;2022-11-15T00:08:50;96808.31;;;10.06;81.64
10992;BME280;5549;47.028;15.514;2022-11-15T00:11:20;96805.09;;;10.02;81.50
10992;BME280;5549;47.028;15.514;2022-11-15T00:13:51;96797.34;;;10.01;82.21
10992;BME280;5549;47.028;15.514;2022-11-15T00:16:21;96794.50;;;10.04;81.37
10992;BME280;5549;47.028;15.514;2022-11-15T00:18:49;96797.00;;;10.05;82.07
10992;BME280;5549;47.028;15.514;2022-11-15T00:21:17;96795.91;;;10.08;82.03
10992;BME280;5549;47.028;15.514;2022-11-15T00:23:45;96804.28;;;10.02;81.05
10992;BME280;5549;47.028;15.514;2022-11-15T00:26:17;96802.38;;;10.04;81.63
10992;BME280;5549;47.028;15.514;2022-11-15T00:28:45;96792.59;;;10.06;81.76
10992;BME280;5549;47.028;15.514;2022-11-15T00:31:15;96789.47;;;10.01;81.52
10992;BME280;5549;47.028;15.514;2022-11-15T00:33:44;96790.19;;;9.91;81.96
10992;BME280;5549;47.028;15.514;2022-11-15T00:36:12;96797.59;;;9.86;81.46
10992;BME280;5549;47.028;15.514;2022-11-15T00:38:41;96794.50;;;9.81;81.74
10992;BME280;5549;47.028;15.514;2022-11-15T00:41:11;96797.81;;;9.83;82.42
10992;BME280;5549;47.028;15.514;2022-11-15T00:43:40;96785.19;;;9.88;82.04
10992;BME280;5549;47.028;15.514;2022-11-15T00:46:09;96783.75;;;9.95;81.29
10992;BME280;5549;47.028;15.514;2022-11-15T00:48:40;96781.72;;;9.99;81.18
10992;BME280;5549;47.028;15.514;2022-11-15T00:51:08;96783.28;;;10.02;81.25
10992;BME280;5549;47.028;15.514;2022-11-15T00:53:36;96779.81;;;10.01;81.03
10992;BME280;5549;47.028;15.514;2022-11-15T00:56:06;96766.81;;;10.00;81.68
10992;BME280;5549;47.028;15.514;2022-11-15T00:58:34;96772.31;;;9.96;81.66
10992;BME280;5549;47.028;15.514;2022-11-15T01:01:11;96769.56;;;9.98;81.55
10992;BME280;5549;47.028;15.514;2022-11-15T01:03:41;96763.72;;;9.94;81.75
10992;BME280;5549;47.028;15.514;2022-11-15T01:06:11;96751.81;;;9.90;81.44
10992;BME280;5549;47.028;15.514;2022-11-15T01:08:41;96750.97;;;9.90;82.07
10992;BME280;5549;47.028;15.514;2022-11-15T01:11:11;96744.41;;;9.95;82.09
10992;BME280;5549;47.028;15.514;2022-11-15T01:13:39;96744.16;;;9.98;81.69
10992;BME280;5549;47.028;15.514;2022-11-15T01:16:12;96734.63;;;9.97;81.82
10992;BME280;5549;47.028;15.514;2022-11-15T01:18:45;96732.84;;;9.98;81.43
10992;BME280;5549;47.028;15.514;2022-11-15T01:21:18;96738.44;;;10.05;81.67
10992;BME280;5549;47.028;15.514;2022-11-15T01:23:46;96731.75;;;10.12;81.73
10992;BME280;5549;47.028;15.514;2022-11-15T01:26:16;96742.97;;;10.14;80.91
10992;BME280;5549;47.028;15.514;2022-11-15T01:28:46;96732.34;;;10.15;81.40
10992;BME280;5549;47.028;15.514;2022-11-15T01:31:20;96729.59;;;10.17;80.55
10992;BME280;5549;47.028;15.514;2022-11-15T01:33:51;96739.25;;;10.16;80.52
10992;BME280;5549;47.028;15.514;2022-11-15T01:36:21;96737.47;;;10.17;81.20
10992;BME280;5549;47.028;15.514;2022-11-15T01:38:54;96746.28;;;10.16;80.62
10992;BME280;5549;47.028;15.514;2022-11-15T01:41:27;96749.41;;;10.10;81.38
10992;BME280;5549;47.028;15.514;2022-11-15T01:44:36;96746.78;;;10.10;80.65
10992;BME280;5549;47.028;15.514;2022-11-15T01:47:10;96745.34;;;10.06;81.05
10992;BME280;5549;47.028;15.514;2022-11-15T01:49:50;96740.34;;;10.03;81.53
10992;BME280;5549;47.028;15.514;2022-11-15T01:52:22;96737.50;;;9.94;81.69
10992;BME280;5549;47.028;15.514;2022-11-15T01:55:00;96744.06;;;9.89;81.89
10992;BME280;5549;47.028;15.514;2022-11-15T01:57:31;96733.81;;;9.86;81.83
10992;BME280;5549;47.028;15.514;2022-11-15T02:00:05;96731.06;;;9.87;82.35
10992;BME280;5549;47.028;15.514;2022-11-15T02:02:37;96729.41;;;9.86;82.11
10992;BME280;5549;47.028;15.514;2022-11-15T02:05:06;96722.13;;;9.90;82.47
10992;BME280;5549;47.028;15.514;2022-11-15T02:07:36;96727.13;;;9.93;82.31
10992;BME280;5549;47.028;15.514;2022-11-15T02:10:09;96720.91;;;9.94;81.86
10992;BME280;5549;47.028;15.514;2022-11-15T02:12:37;96726.75;;;9.97;81.96
10992;BME280;5549;47.028;15.514;2022-11-15T02:15:07;96714.84;;;9.93;81.94
10992;BME280;5549;47.028;15.514;2022-11-15T02:17:56;96720.56;;;9.87;81.64
10992;BME280;5549;47.028;15.514;2022-11-15T02:20:52;96713.41;;;9.89;82.26
10992;BME280;5549;47.028;15.514;2022-11-15T02:27:23;96704.59;;;9.90;81.70
10992;BME280;5549;47.028;15.514;2022-11-15T02:30:19;96712.47;;;9.90;82.33
10992;BME280;5549;47.028;15.514;2022-11-15T02:32:52;96709.84;;;9.90;81.89
10992;BME280;5549;47.028;15.514;2022-11-15T02:35:31;96712.00;;;9.85;82.70
10992;BME280;5549;47.028;15.514;2022-11-15T02:38:09;96705.56;;;9.78;82.49
10992;BME280;5549;47.028;15.514;2022-11-15T02:40:47;96706.88;;;9.73;83.02
10992;BME280;5549;47.028;15.514;2022-11-15T02:43:25;96699.84;;;9.73;82.81
10992;BME280;5549;47.028;15.514;2022-11-15T02:46:17;96702.22;;;9.76;83.03
10992;BME280;5549;47.028;15.514;2022-11-15T02:48:47;96694.34;;;9.76;83.03
10992;BME280;5549;47.028;15.514;2022-11-15T02:51:15;96688.16;;;9.77;82.56
10992;BME280;5549;47.028;15.514;2022-11-15T02:53:47;96688.75;;;9.81;82.31
10992;BME280;5549;47.028;15.514;2022-11-15T02:56:14;96683.38;;;9.82;82.29
10992;BME280;5549;47.028;15.514;2022-11-15T02:59:12;96685.75;;;9.85;81.92
10992;BME280;5549;47.028;15.514;2022-11-15T03:02:01;96674.91;;;9.90;82.67
10992;BME280;5549;47.028;15.514;2022-11-15T03:04:41;96684.44;;;9.91;82.22
10992;BME280;5549;47.028;15.514;2022-11-15T03:07:19;96685.28;;;9.91;82.23
10992;BME280;5549;47.028;15.514;2022-11-15T03:09:54;96678.47;;;9.89;82.29
10992;BME280;5549;47.028;15.514;2022-11-15T03:12:30;96670.84;;;9.86;81.97
10992;BME280;5549;47.028;15.514;2022-11-15T03:15:09;96667.75;;;9.81;81.86
10992;BME280;5549;47.028;15.514;2022-11-15T03:17:48;96671.34;;;9.80;81.88
10992;BME280;5549;47.028;15.514;2022-11-15T03:20:19;96658.84;;;9.72;82.35
10992;BME280;5549;47.028;15.514;2022-11-15T03:22:48;96665.03;;;9.71;82.50
10992;BME280;5549;47.028;15.514;2022-11-15T03:25:21;96661.94;;;9.77;82.24
10992;BME280;5549;47.028;15.514;2022-11-15T03:27:55;96657.16;;;9.82;82.35
10992;BME280;5549;47.028;15.514;2022-11-15T03:30:24;96655.94;;;9.86;82.73
10992;BME280;5549;47.028;15.514;2022-11-15T03:32:56;96652.38;;;9.87;82.66
10992;BME280;5549;47.028;15.514;2022-11-15T03:35:29;96660.81;;;9.91;81.76
10992;BME280;5549;47.028;15.514;2022-11-15T03:38:03;96649.50;;;9.90;82.40
10992;BME280;5549;47.028;15.514;2022-11-15T03:40:37;96646.16;;;9.88;82.19
10992;BME280;5549;47.028;15.514;2022-11-15T03:43:14;96647.72;;;9.91;82.05
10992;BME280;5549;47.028;15.514;2022-11-15T03:45:48;96650.47;;;9.89;81.91
10992;BME280;5549;47.028;15.514;2022-11-15T03:48:22;96642.97;;;9.85;81.90
10992;BME280;5549;47.028;15.514;2022-11-15T03:50:51;96645.94;;;9.80;82.07
10992;BME280;5549;47.028;15.514;2022-11-15T03:53:20;96655.72;;;9.78;82.41
10992;BME280;5549;47.028;15.514;2022-11-15T03:55:47;96660.50;;;9.73;82.53
10992;BME280;5549;47.028;15.514;2022-11-15T03:58:15;96656.56;;;9.68;82.20
10992;BME280;5549;47.028;15.514;2022-11-15T04:00:43;96647.28;;;9.63;82.55
10992;BME280;5549;47.028;15.514;2022-11-15T04:03:10;96643.81;;;9.63;82.36
10992;BME280;5549;47.028;15.514;2022-11-15T04:05:42;96649.31;;;9.60;82.99
10992;BME280;5549;47.028;15.514;2022-11-15T04:08:12;96653.84;;;9.58;82.90
10992;BME280;5549;47.028;15.514;2022-11-15T04:10:39;96650.63;;;9.54;83.29
10992;BME280;5549;47.028;15.514;2022-11-15T04:13:07;96647.75;;;9.57;83.04
10992;BME280;5549;47.028;15.514;2022-11-15T04:15:35;96649.56;;;9.57;83.42
10992;BME280;5549;47.028;15.514;2022-11-15T04:18:02;96638.00;;;9.59;83.34
10992;BME280;5549;47.028;15.514;2022-11-15T04:20:31;96637.03;;;9.60;83.47
10992;BME280;5549;47.028;15.514;2022-11-15T04:23:19;96632.63;;;9.61;83.54
10992;BME280;5549;47.028;15.514;2022-11-15T04:26:09;96628.09;;;9.63;83.86
10992;BME280;5549;47.028;15.514;2022-11-15T04:28:38;96626.31;;;9.63;83.40
10992;BME280;5549;47.028;15.514;2022-11-15T04:31:27;96623.81;;;9.62;83.63
10992;BME280;5549;47.028;15.514;2022-11-15T04:33:55;96622.03;;;9.62;83.81
10992;BME280;5549;47.028;15.514;2022-11-15T04:36:25;96615.94;;;9.62;83.65
10992;BME280;5549;47.028;15.514;2022-11-15T04:39:11;96610.94;;;9.59;84.25
10992;BME280;5549;47.028;15.514;2022-11-15T04:41:39;96602.50;;;9.55;84.08
10992;BME280;5549;47.028;15.514;2022-11-15T04:44:07;96595.47;;;9.56;84.40
10992;BME280;5549;47.028;15.514;2022-11-15T04:46:34;96602.25;;;9.47;84.59
10992;BME280;5549;47.028;15.514;2022-11-15T04:49:04;96604.28;;;9.44;84.65
10992;BME280;5549;47.028;15.514;2022-11-15T04:51:32;96602.16;;;9.38;85.41
10992;BME280;5549;47.028;15.514;2022-11-15T04:54:00;96596.91;;;9.38;84.91
10992;BME280;5549;47.028;15.514;2022-11-15T04:56:32;96597.16;;;9.35;85.19
10992;BME280;5549;47.028;15.514;2022-11-15T04:59:02;96596.56;;;9.31;85.77
10992;BME280;5549;47.028;15.514;2022-11-15T05:01:32;96592.38;;;9.28;86.06
10992;BME280;5549;47.028;15.514;2022-11-15T05:04:00;96587.38;;;9.25;85.96
10992;BME280;5549;47.028;15.514;2022-11-15T05:06:49;96588.22;;;9.26;85.72
10992;BME280;5549;47.028;15.514;2022-11-15T05:09:20;96577.50;;;9.29;85.69
10992;BME280;5549;47.028;15.514;2022-11-15T05:11:50;96578.09;;;9.32;85.84
10992;BME280;5549;47.028;15.514;2022-11-15T05:14:17;96577.38;;;9.30;85.70
10992;BME280;5549;47.028;15.514;2022-11-15T05:16:45;96573.09;;;9.29;85.70
10992;BME280;5549;47.028;15.514;2022-11-15T05:19:13;96576.66;;;9.28;85.40
10992;BME280;5549;47.028;15.514;2022-11-15T05:21:43;96576.06;;;9.25;85.43
10992;BME280;5549;47.028;15.514;2022-11-15T05:24:11;96567.25;;;9.26;85.47
10992;BME280;5549;47.028;15.514;2022-11-15T05:26:39;96565.47;;;9.26;85.66
10992;BME280;5549;47.028;15.514;2022-11-15T05:29:09;96573.69;;;9.22;85.57
10992;BME280;5549;47.028;15.514;2022-11-15T05:31:41;96572.16;;;9.19;86.00
10992;BME280;5549;47.028;15.514;2022-11-15T05:34:10;96573.47;;;9.14;86.33
10992;BME280;5549;47.028;15.514;2022-11-15T05:36:42;96574.28;;;9.14;86.78
10992;BME280;5549;47.028;15.514;2022-11-15T05:39:10;96572.50;;;9.15;86.22
10992;BME280;5549;47.028;15.514;2022-11-15T05:41:44;96580.00;;;9.08;86.58
10992;BME280;5549;47.028;15.514;2022-11-15T05:44:16;96585.84;;;9.00;86.79
10992;BME280;5549;47.028;15.514;2022-11-15T05:46:45;96579.53;;;8.92;87.44
10992;BME280;5549;47.028;15.514;2022-11-15T05:49:17;96582.16;;;8.81;88.38
10992;BME280;5549;47.028;15.514;2022-11-15T05:51:47;96575.00;;;8.72;89.07
10992;BME280;5549;47.028;15.514;2022-11-15T05:54:16;96581.91;;;8.73;89.06
10992;BME280;5549;47.028;15.514;2022-11-15T05:56:44;96591.81;;;8.56;90.09
10992;BME280;5549;47.028;15.514;2022-11-15T05:59:14;96591.72;;;8.58;89.98
10992;BME280;5549;47.028;15.514;2022-11-15T06:01:41;96595.75;;;8.62;90.11
10992;BME280;5549;47.028;15.514;2022-11-15T06:04:09;96588.59;;;8.53;90.38
10992;BME280;5549;47.028;15.514;2022-11-15T06:06:39;96591.94;;;8.55;90.27
10992;BME280;5549;47.028;15.514;2022-11-15T06:09:07;96589.56;;;8.52;90.25
10992;BME280;5549;47.028;15.514;2022-11-15T06:11:37;96587.78;;;8.52;90.29
10992;BME280;5549;47.028;15.514;2022-11-15T06:14:07;96589.44;;;8.53;90.33
10992;BME280;5549;47.028;15.514;2022-11-15T06:16:36;96589.22;;;8.56;90.36
10992;BME280;5549;47.028;15.514;2022-11-15T06:19:06;96590.66;;;8.60;90.02
10992;BME280;5549;47.028;15.514;2022-11-15T06:21:37;96596.94;;;8.58;89.92
10992;BME280;5549;47.028;15.514;2022-11-15T06:24:06;96602.56;;;8.64;89.78
10992;BME280;5549;47.028;15.514;2022-11-15T06:26:36;96600.81;;;8.76;89.58
10992;BME280;5549;47.028;15.514;2022-11-15T06:29:06;96611.44;;;8.86;89.46
10992;BME280;5549;47.028;15.514;2022-11-15T06:31:35;96609.06;;;8.94;89.15
10992;BME280;5549;47.028;15.514;2022-11-15T06:34:03;96598.94;;;9.00;89.18
10992;BME280;5549;47.028;15.514;2022-11-15T06:36:35;96602.16;;;9.04;88.72
10992;BME280;5549;47.028;15.514;2022-11-15T06:39:03;96602.41;;;9.12;88.77
10992;BME280;5549;47.028;15.514;2022-11-15T06:41:34;96604.06;;;9.13;88.71
10992;BME280;5549;47.028;15.514;2022-11-15T06:44:02;96610.97;;;9.14;88.70
10992;BME280;5549;47.028;15.514;2022-11-15T06:46:33;96610.50;;;9.20;87.81
10992;BME280;5549;47.028;15.514;2022-11-15T06:49:04;96611.34;;;9.21;87.62
10992;BME280;5549;47.028;15.514;2022-11-15T06:51:32;96605.97;;;9.22;87.93
10992;BME280;5549;47.028;15.514;2022-11-15T06:54:00;96606.69;;;9.24;87.36
10992;BME280;5549;47.028;15.514;2022-11-15T06:56:27;96602.03;;;9.28;87.31
10992;BME280;5549;47.028;15.514;2022-11-15T06:58:56;96598.09;;;9.33;87.70
10992;BME280;5549;47.028;15.514;2022-11-15T07:01:26;96601.91;;;9.41;87.20
10992;BME280;5549;47.028;15.514;2022-11-15T07:03:54;96592.84;;;9.45;86.75
10992;BME280;5549;47.028;15.514;2022-11-15T07:06:23;96594.63;;;9.44;86.37
10992;BME280;5549;47.028;15.514;2022-11-15T07:08:51;96596.19;;;9.47;86.21
10992;BME280;5549;47.028;15.514;2022-11-15T07:11:18;96592.59;;;9.48;86.25
10992;BME280;5549;47.028;15.514;2022-11-15T07:13:48;96595.00;;;9.40;86.43
10992;BME280;5549;47.028;15.514;2022-11-15T07:16:18;96593.22;;;9.18;87.13
10992;BME280;5549;47.028;15.514;2022-11-15T07:18:45;96588.94;;;9.17;87.81
10992;BME280;5549;47.028;15.514;2022-11-15T07:21:16;96585.47;;;9.27;87.45
10992;BME280;5549;47.028;15.514;2022-11-15T07:23:45;96582.84;;;9.39;87.31
10992;BME280;5549;47.028;15.514;2022-11-15T07:26:17;96579.03;;;9.43;86.86
10992;BME280;5549;47.028;15.514;2022-11-15T07:28:46;96576.88;;;9.48;86.79
10992;BME280;5549;47.028;15.514;2022-11-15T07:31:16;96573.06;;;9.52;86.54
10992;BME280;5549;47.028;15.514;2022-11-15T07:33:47;96578.66;;;9.58;86.58
10992;BME280;5549;47.028;15.514;2022-11-15T07:36:14;96568.09;;;9.81;87.32
10992;BME280;5549;47.028;15.514;2022-11-15T07:38:42;96571.94;;;10.09;87.64
10992;BME280;5549;47.028;15.514;2022-11-15T07:41:11;96574.50;;;10.31;87.34
10992;BME280;5549;47.028;15.514;2022-11-15T07:43:41;96573.94;;;10.48;87.30
10992;BME280;5549;47.028;15.514;2022-11-15T07:46:09;96575.41;;;10.62;87.92
10992;BME280;5549;47.028;15.514;2022-11-15T07:48:37;96581.56;;;10.72;86.83
10992;BME280;5549;47.028;15.514;2022-11-15T07:51:11;96577.09;;;10.63;85.27
10992;BME280;5549;47.028;15.514;2022-11-15T07:53:39;96574.78;;;10.49;84.84
10992;BME280;5549;47.028;15.514;2022-11-15T07:56:11;96574.22;;;10.45;84.46
10992;BME280;5549;47.028;15.514;2022-11-15T07:58:39;96577.22;;;10.41;84.37
10992;BME280;5549;47.028;15.514;2022-11-15T08:01:09;96570.53;;;10.37;83.93
10992;BME280;5549;47.028;15.514;2022-11-15T08:03:37;96570.78;;;10.34;84.28
10992;BME280;5549;47.028;15.514;2022-11-15T08:06:05;96571.66;;;10.23;83.54
10992;BME280;5549;47.028;15.514;2022-11-15T08:08:33;96568.81;;;10.15;83.62
10992;BME280;5549;47.028;15.514;2022-11-15T08:11:03;96570.03;;;10.11;83.25
10992;BME280;5549;47.028;15.514;2022-11-15T08:13:34;96567.78;;;10.06;84.20
10992;BME280;5549;47.028;15.514;2022-11-15T08:16:03;96571.22;;;10.07;84.19
10992;BME280;5549;47.028;15.514;2022-11-15T08:18:34;96567.53;;;10.09;84.43
10992;BME280;5549;47.028;15.514;2022-11-15T08:21:05;96565.59;;;10.11;83.86
10992;BME280;5549;47.028;15.514;2022-11-15T08:23:35;96567.28;;;10.12;83.92
10992;BME280;5549;47.028;15.514;2022-11-15T08:26:05;96563.94;;;10.10;83.60
10992;BME280;5549;47.028;15.514;2022-11-15T08:28:36;96568.59;;;10.07;83.12
10992;BME280;5549;47.028;15.514;2022-11-15T08:31:04;96561.22;;;10.01;83.59
10992;BME280;5549;47.028;15.514;2022-11-15T08:33:35;96559.56;;;10.00;83.91
10992;BME280;5549;47.028;15.514;2022-11-15T08:36:04;96554.31;;;10.00;83.93
10992;BME280;5549;47.028;15.514;2022-11-15T08:38:34;96555.28;;;9.98;84.08
10992;BME280;5549;47.028;15.514;2022-11-15T08:41:04;96555.28;;;9.98;84.32
10992;BME280;5549;47.028;15.514;2022-11-15T08:43:36;96551.69;;;10.00;84.08
10992;BME280;5549;47.028;15.514;2022-11-15T08:46:11;96548.94;;;10.01;84.26
10992;BME280;5549;47.028;15.514;2022-11-15T08:48:42;96549.19;;;9.98;84.15
10992;BME280;5549;47.028;15.514;2022-11-15T08:51:10;96551.25;;;9.94;84.29
10992;BME280;5549;47.028;15.514;2022-11-15T08:53:39;96542.59;;;9.83;84.59
10992;BME280;5549;47.028;15.514;2022-11-15T08:56:11;96543.22;;;9.75;84.61
10992;BME280;5549;47.028;15.514;2022-11-15T08:58:41;96538.78;;;9.76;84.89
10992;BME280;5549;47.028;15.514;2022-11-15T09:01:16;96538.22;;;9.72;85.27
10992;BME280;5549;47.028;15.514;2022-11-15T09:03:47;96548.00;;;9.70;85.55
10992;BME280;5549;47.028;15.514;2022-11-15T09:06:15;96552.41;;;9.70;85.94
10992;BME280;5549;47.028;15.514;2022-11-15T09:08:45;96553.59;;;9.65;85.94
10992;BME280;5549;47.028;15.514;2022-11-15T09:11:12;96551.94;;;9.64;86.36
10992;BME280;5549;47.028;15.514;2022-11-15T09:13:44;96551.34;;;9.61;86.36
10992;BME280;5549;47.028;15.514;2022-11-15T09:16:12;96547.06;;;9.60;86.33
10992;BME280;5549;47.028;15.514;2022-11-15T09:18:41;96552.09;;;9.52;86.54
10992;BME280;5549;47.028;15.514;2022-11-15T09:21:09;96541.34;;;9.55;86.36
10992;BME280;5549;47.028;15.514;2022-11-15T09:23:37;96538.72;;;9.55;86.60
10992;BME280;5549;47.028;15.514;2022-11-15T09:26:06;96548.25;;;9.56;87.18
10992;BME280;5549;47.028;15.514;2022-11-15T09:28:34;96540.16;;;9.59;87.12
10992;BME280;5549;47.028;15.514;2022-11-15T09:31:05;96537.16;;;9.63;86.74
10992;BME280;5549;47.028;15.514;2022-11-15T09:33:33;96533.34;;;9.68;86.66
10992;BME280;5549;47.028;15.514;2022-11-15T09:36:02;96532.97;;;9.72;86.55
10992;BME280;5549;47.028;15.514;2022-11-15T09:38:33;96523.63;;;9.79;86.66
10992;BME280;5549;47.028;15.514;2022-11-15T09:41:56;96525.63;;;9.87;86.42
10992;BME280;5549;47.028;15.514;2022-11-15T09:44:56;96520.97;;;9.90;86.52
10992;BME280;5549;47.028;15.514;2022-11-15T09:48:17;96518.56;;;9.98;86.14
10992;BME280;5549;47.028;15.514;2022-11-15T09:50:51;96509.72;;;10.00;85.69
10992;BME280;5549;47.028;15.514;2022-11-15T09:53:34;96501.84;;;10.00;86.10
10992;BME280;5549;47.028;15.514;2022-11-15T09:56:16;96501.59;;;10.03;86.09
10992;BME280;5549;47.028;15.514;2022-11-15T09:58:55;96494.88;;;10.10;85.80
10992;BME280;5549;47.028;15.514;2022-11-15T10:01:43;96483.63;;;10.19;85.40
10992;BME280;5549;47.028;15.514;2022-11-15T10:04:14;96483.13;;;10.25;85.55
10992;BME280;5549;47.028;15.514;2022-11-15T10:06:49;96483.97;;;10.25;85.47
10992;BME280;5549;47.028;15.514;2022-11-15T10:09:23;96481.13;;;10.17;85.51
10992;BME280;5549;47.028;15.514;2022-11-15T10:11:53;96471.47;;;10.18;85.47
10992;BME280;5549;47.028;15.514;2022-11-15T10:14:24;96471.72;;;10.15;85.52
10992;BME280;5549;47.028;15.514;2022-11-15T10:17:26;96461.22;;;10.15;85.59
10992;BME280;5549;47.028;15.514;2022-11-15T10:20:13;96465.06;;;10.11;85.63
10992;BME280;5549;47.028;15.514;2022-11-15T10:22:50;96451.31;;;10.18;85.95
10992;BME280;5549;47.028;15.514;2022-11-15T10:25:23;96452.78;;;10.32;85.64
10992;BME280;5549;47.028;15.514;2022-11-15T10:27:56;96443.44;;;10.39;85.28
10992;BME280;5549;47.028;15.514;2022-11-15T10:30:32;96441.41;;;10.43;85.15
10992;BME280;5549;47.028;15.514;2022-11-15T10:33:25;96445.44;;;10.47;85.05
10992;BME280;5549;47.028;15.514;2022-11-15T10:36:22;96434.38;;;10.43;84.29
10992;BME280;5549;47.028;15.514;2022-11-15T10:38:55;96419.47;;;10.53;84.63
10992;BME280;5549;47.028;15.514;2022-11-15T10:41:32;96422.97;;;10.64;83.68
10992;BME280;5549;47.028;15.514;2022-11-15T10:47:28;96409.06;;;10.73;83.95
10992;BME280;5549;47.028;15.514;2022-11-15T10:50:04;96413.78;;;10.79;83.31
10992;BME280;5549;47.028;15.514;2022-11-15T10:52:45;96397.72;;;10.72;83.05
10992;BME280;5549;47.028;15.514;2022-11-15T10:55:27;96390.81;;;10.71;82.52
10992;BME280;5549;47.028;15.514;2022-11-15T10:58:01;96378.63;;;10.70;82.48
10992;BME280;5549;47.028;15.514;2022-11-15T11:00:34;96373.78;;;10.66;83.16
10992;BME280;5549;47.028;15.514;2022-11-15T11:03:05;96370.22;;;10.76;83.29
10992;BME280;5549;47.028;15.514;2022-11-15T11:05:36;96373.56;;;10.88;83.34
10992;BME280;5549;47.028;15.514;2022-11-15T11:08:24;96380.91;;;10.94;82.16
10992;BME280;5549;47.028;15.514;2022-11-15T11:10:53;96370.66;;;10.91;81.53
10992;BME280;5549;47.028;15.514;2022-11-15T11:13:25;96369.84;;;10.90;80.87
10992;BME280;5549;47.028;15.514;2022-11-15T11:15:59;96364.44;;;10.92;81.33
10992;BME280;5549;47.028;15.514;2022-11-15T11:18:33;96358.50;;;10.90;81.71
10992;BME280;5549;47.028;15.514;2022-11-15T11:21:10;96351.31;;;10.92;80.55
10992;BME280;5549;47.028;15.514;2022-11-15T11:23:50;96351.03;;;10.95;81.02
10992;BME280;5549;47.028;15.514;2022-11-15T11:26:36;96345.22;;;11.01;80.78
10992;BME280;5549;47.028;15.514;2022-11-15T11:29:26;96343.16;;;11.05;80.61
10992;BME280;5549;47.028;15.514;2022-11-15T11:32:09;96350.63;;;11.09;80.82
10992;BME280;5549;47.028;15.514;2022-11-15T11:34:55;96337.22;;;11.03;80.71
10992;BME280;5549;47.028;15.514;2022-11-15T11:37:32;96334.59;;;11.12;80.39
10992;BME280;5549;47.028;15.514;2022-11-15T11:40:20;96340.00;;;11.20;80.16
10992;BME280;5549;47.028;15.514;2022-11-15T11:42:57;96334.59;;;11.22;80.04
10992;BME280;5549;47.028;15.514;2022-11-15T11:46:01;96324.50;;;11.17;78.98
10992;BME280;5549;47.028;15.514;2022-11-15T11:48:41;96322.69;;;11.18;79.75
10992;BME280;5549;47.028;15.514;2022-11-15T11:51:18;96314.25;;;11.14;79.06
10992;BME280;5549;47.028;15.514;2022-11-15T11:53:54;96302.63;;;11.07;79.62
10992;BME280;5549;47.028;15.514;2022-11-15T11:56:27;96291.44;;;11.05;80.38
10992;BME280;5549;47.028;15.514;2022-11-15T11:59:05;96287.56;;;10.90;80.22
10992;BME280;5549;47.028;15.514;2022-11-15T12:01:39;96288.25;;;10.92;80.26
10992;BME280;5549;47.028;15.514;2022-11-15T12:04:14;96287.00;;;10.77;80.50
10992;BME280;5549;47.028;15.514;2022-11-15T12:06:49;96286.16;;;10.76;80.90
10992;BME280;5549;47.028;15.514;2022-11-15T12:09:26;96279.94;;;10.58;81.26
10992;BME280;5549;47.028;15.514;2022-11-15T12:12:05;96279.03;;;10.38;82.67
10992;BME280;5549;47.028;15.514;2022-11-15T12:14:42;96274.94;;;10.45;82.59
10992;BME280;5549;47.028;15.514;2022-11-15T12:17:11;96265.34;;;10.35;82.91
10992;BME280;5549;47.028;15.514;2022-11-15T12:19:42;96267.38;;;10.21;84.10
10992;BME280;5549;47.028;15.514;2022-11-15T12:22:19;96256.88;;;10.21;83.86
10992;BME280;5549;47.028;15.514;2022-11-15T12:24:55;96255.66;;;10.25;83.77
10992;BME280;5549;47.028;15.514;2022-11-15T12:27:35;96252.19;;;10.25;83.04
10992;BME280;5549;47.028;15.514;2022-11-15T12:30:12;96250.81;;;10.21;84.21
10992;BME280;5549;47.028;15.514;2022-11-15T12:32:51;96240.16;;;10.22;84.76
10992;BME280;5549;47.028;15.514;2022-11-15T12:35:27;96242.78;;;10.22;84.77
10992;BME280;5549;47.028;15.514;2022-11-15T12:37:56;96247.34;;;10.20;84.97
10992;BME280;5549;47.028;15.514;2022-11-15T12:40:35;96259.88;;;10.17;84.59
10992;BME280;5549;47.028;15.514;2022-11-15T12:43:38;96253.78;;;10.16;84.68
10992;BME280;5549;47.028;15.514;2022-11-15T12:46:13;96251.16;;;10.07;85.16
10992;BME280;5549;47.028;15.514;2022-11-15T12:48:56;96253.22;;;10.13;84.77
10992;BME280;5549;47.028;15.514;2022-11-15T12:52:06;96253.75;;;10.07;84.81
10992;BME280;5549;47.028;15.514;2022-11-15T12:55:00;96244.66;;;10.11;84.79
10992;BME280;5549;47.028;15.514;2022-11-15T12:57:42;96243.69;;;10.12;85.01
10992;BME280;5549;47.028;15.514;2022-11-15T13:00:45;96236.38;;;10.15;83.76
10992;BME280;5549;47.028;15.514;2022-11-15T13:03:29;96235.28;;;10.18;84.19
10992;BME280;5549;47.028;15.514;2022-11-15T13:06:06;96235.00;;;10.11;84.55
10992;BME280;5549;47.028;15.514;2022-11-15T13:08:49;96229.47;;;10.14;84.34
10992;BME280;5549;47.028;15.514;2022-11-15T13:11:50;96226.56;;;10.08;84.83
10992;BME280;5549;47.028;15.514;2022-11-15T13:14:45;96225.75;;;10.17;84.61
10992;BME280;5549;47.028;15.514;2022-11-15T13:17:26;96221.16;;;10.00;84.99
10992;BME280;5549;47.028;15.514;2022-11-15T13:20:00;96219.22;;;10.02;84.77
10992;BME280;5549;47.028;15.514;2022-11-15T13:22:32;96212.75;;;10.06;84.80
10992;BME280;5549;47.028;15.514;2022-11-15T13:26:08;96211.09;;;10.05;84.70
10992;BME280;5549;47.028;15.514;2022-11-15T13:28:42;96210.56;;;10.11;84.08
10992;BME280;5549;47.028;15.514;2022-11-15T13:31:34;96209.03;;;10.08;84.53
10992;BME280;5549;47.028;15.514;2022-11-15T13:34:24;96207.47;;;9.96;84.38
10992;BME280;5549;47.028;15.514;2022-11-15T13:36:53;96207.63;;;10.04;85.23
10992;BME280;5549;47.028;15.514;2022-11-15T13:39:28;96204.47;;;10.01;84.63
10992;BME280;5549;47.028;15.514;2022-11-15T13:42:00;96201.84;;;10.01;84.39
10992;BME280;5549;47.028;15.514;2022-11-15T13:44:31;96201.28;;;10.07;84.42
10992;BME280;5549;47.028;15.514;2022-11-15T13:47:06;96197.69;;;9.98;83.98
10992;BME280;5549;47.028;15.514;2022-11-15T13:49:35;96188.56;;;9.92;84.60
10992;BME280;5549;47.028;15.514;2022-11-15T13:52:07;96186.31;;;9.78;84.95